createdAt,value
2019-06-08T00:03:20.850Z,18.80
2019-06-08T00:08:25.349Z,18.70
2019-06-08T00:13:31.496Z,18.60
2019-06-08T00:18:35.755Z,18.70
2019-06-08T00:23:40.158Z,18.50
2019-06-08T00:28:44.453Z,18.40
2019-06-08T00:33:48.806Z,18.30
2019-06-08T00:38:53.186Z,18.20
2019-06-08T00:43:57.382Z,18.30
2019-06-08T00:49:01.791Z,18.20
2019-06-08T00:54:06.065Z,18.10
2019-06-08T00:59:10.445Z,17.90
2019-06-08T01:04:14.617Z,17.80
2019-06-08T01:09:20.332Z,17.70
2019-06-08T01:14:24.917Z,17.70
2019-06-08T01:19:29.787Z,17.70
2019-06-08T01:24:34.175Z,17.70
2019-06-08T01:29:38.472Z,17.70
2019-06-08T01:34:42.800Z,17.60
2019-06-08T01:39:47.075Z,17.70
2019-06-08T01:44:51.337Z,17.70
2019-06-08T01:49:55.623Z,17.50
2019-06-08T01:55:00.142Z,17.50
2019-06-08T02:00:29.128Z,17.40
2019-06-08T02:05:12.062Z,17.40
2019-06-08T02:10:17.499Z,17.40
2019-06-08T02:15:25.318Z,17.50
2019-06-08T02:20:30.814Z,17.60
2019-06-08T02:25:35.784Z,17.60
2019-06-08T02:30:41.859Z,17.60
2019-06-08T02:35:46.258Z,17.50
2019-06-08T02:40:50.485Z,17.50
2019-06-08T02:45:54.962Z,17.50
2019-06-08T02:50:59.249Z,17.50
2019-06-08T02:56:04.324Z,17.50
2019-06-08T03:01:09.044Z,17.60
2019-06-08T03:06:15.497Z,17.50
2019-06-08T03:11:21.646Z,17.30
2019-06-08T03:16:26.123Z,17.30
2019-06-08T03:21:31.413Z,17.10
2019-06-08T03:26:36.612Z,17.20
2019-06-08T03:31:51.627Z,17.20
2019-06-08T03:36:56.603Z,17.10
2019-06-08T03:41:58.030Z,17.10
2019-06-08T03:47:02.321Z,17.00
2019-06-08T03:52:06.614Z,17.10
2019-06-08T03:57:10.996Z,17.20
2019-06-08T04:02:15.282Z,17.10
2019-06-08T04:07:19.602Z,17.20
2019-06-08T04:12:23.890Z,17.10
2019-06-08T04:17:35.378Z,17.10
2019-06-08T04:22:45.170Z,17.10
2019-06-08T04:27:51.023Z,17.10
2019-06-08T04:32:55.509Z,17.20
2019-06-08T04:37:59.797Z,17.00
2019-06-08T04:43:04.258Z,17.00
2019-06-08T04:48:09.849Z,16.90
2019-06-08T04:53:14.364Z,16.90
2019-06-08T04:58:18.627Z,16.80
2019-06-08T05:03:23.069Z,16.60
2019-06-08T05:08:27.463Z,16.40
2019-06-08T05:13:31.762Z,16.50
2019-06-08T05:18:36.072Z,16.50
2019-06-08T05:23:41.309Z,16.50
2019-06-08T05:28:45.730Z,16.50
2019-06-08T05:33:50.110Z,16.60
2019-06-08T05:38:54.453Z,16.60
2019-06-08T05:43:58.750Z,16.60
2019-06-08T05:49:03.036Z,16.70
2019-06-08T05:54:07.356Z,16.70
2019-06-08T05:59:11.687Z,16.70
2019-06-08T06:04:15.961Z,16.60
2019-06-08T06:09:20.232Z,16.60
2019-06-08T06:14:24.629Z,16.40
2019-06-08T06:19:29.214Z,16.30
2019-06-08T06:24:33.581Z,16.30
2019-06-08T06:29:37.895Z,16.30
2019-06-08T06:34:42.239Z,16.20
2019-06-08T06:39:48.046Z,16.20
2019-06-08T06:44:52.592Z,16.40
2019-06-08T06:49:56.954Z,16.40
2019-06-08T06:55:01.250Z,16.20
2019-06-08T07:00:10.819Z,16.10
2019-06-08T07:05:16.598Z,16.20
2019-06-08T07:10:20.786Z,16.10
2019-06-08T07:15:28.927Z,16.10
2019-06-08T07:20:33.235Z,15.90
2019-06-08T07:25:37.552Z,15.90
2019-06-08T07:30:42.042Z,15.90
2019-06-08T07:35:47.011Z,15.80
2019-06-08T07:40:53.837Z,15.80
2019-06-08T07:45:58.558Z,16.00
2019-06-08T07:51:02.867Z,15.90
2019-06-08T07:56:08.434Z,16.00
2019-06-08T08:01:12.760Z,16.00
2019-06-08T08:06:17.064Z,15.90
2019-06-08T08:11:21.326Z,15.80
2019-06-08T08:16:25.738Z,15.90
2019-06-08T08:21:30.061Z,15.90
2019-06-08T08:26:34.778Z,16.00
2019-06-08T08:31:39.188Z,16.20
2019-06-08T08:36:43.487Z,16.20
2019-06-08T08:41:49.908Z,16.10
2019-06-08T08:46:54.753Z,16.10
2019-06-08T08:52:01.457Z,16.10
2019-06-08T08:57:08.298Z,16.10
2019-06-08T09:02:11.921Z,16.20
2019-06-08T09:07:18.224Z,16.10
2019-06-08T09:12:22.269Z,16.10
2019-06-08T09:17:27.986Z,16.20
2019-06-08T09:22:32.510Z,16.20
2019-06-08T09:27:38.274Z,16.30
2019-06-08T09:32:42.806Z,16.20
2019-06-08T09:37:48.572Z,16.30
2019-06-08T09:42:56.133Z,16.40
2019-06-08T09:48:01.809Z,16.40
2019-06-08T09:53:22.351Z,16.60
2019-06-08T09:58:11.953Z,16.60
2019-06-08T10:03:18.594Z,16.60
2019-06-08T10:08:22.484Z,16.70
2019-06-08T10:13:28.086Z,17.00
2019-06-08T10:18:32.864Z,17.10
2019-06-08T10:23:38.612Z,17.10
2019-06-08T10:28:43.249Z,17.10
2019-06-08T10:33:48.237Z,17.20
2019-06-08T10:38:52.747Z,17.20
2019-06-08T10:43:57.222Z,17.30
2019-06-08T10:49:01.973Z,17.40
2019-06-08T10:54:09.385Z,17.50
2019-06-08T10:59:12.821Z,17.50
2019-06-08T11:04:18.612Z,17.40
2019-06-08T11:09:23.112Z,17.40
2019-06-08T11:14:27.482Z,17.50
2019-06-08T11:19:32.851Z,17.40
2019-06-08T11:24:38.786Z,17.50
2019-06-08T11:29:43.337Z,17.60
2019-06-08T11:34:48.808Z,17.70
2019-06-08T11:39:53.446Z,17.60
2019-06-08T11:44:58.661Z,17.70
2019-06-08T11:50:04.600Z,17.90
2019-06-08T11:55:13.013Z,18.00
2019-06-08T12:00:30.179Z,17.90
2019-06-08T12:05:31.016Z,17.90
2019-06-08T12:10:35.355Z,17.80
2019-06-08T12:15:39.763Z,17.80
2019-06-08T12:20:44.070Z,17.80
2019-06-08T12:25:48.622Z,17.90
2019-06-08T12:30:53.021Z,17.90
2019-06-08T12:35:57.910Z,17.90
2019-06-08T12:41:02.393Z,17.80
2019-06-08T12:46:10.627Z,17.70
2019-06-08T12:51:13.653Z,17.70
2019-06-08T12:56:23.821Z,17.90
2019-06-08T13:01:24.972Z,18.30
2019-06-08T13:06:29.318Z,18.60
2019-06-08T13:11:33.663Z,18.80
2019-06-08T13:16:52.664Z,18.90
2019-06-08T13:21:55.583Z,19.10
2019-06-08T13:26:59.955Z,19.40
2019-06-08T13:32:04.284Z,19.70
2019-06-08T13:37:08.595Z,19.80
2019-06-08T13:42:13.222Z,19.70
2019-06-08T13:47:18.903Z,19.80
2019-06-08T13:52:25.116Z,20.30
2019-06-08T13:57:29.874Z,20.70
2019-06-08T14:02:34.205Z,20.90
2019-06-08T14:07:38.513Z,21.20
2019-06-08T14:12:42.806Z,21.20
2019-06-08T14:17:47.494Z,21.20
2019-06-08T14:22:58.950Z,21.30
2019-06-08T14:28:03.449Z,21.10
2019-06-08T14:33:08.434Z,20.90
2019-06-08T14:38:13.068Z,21.00
2019-06-08T14:43:18.163Z,21.10
2019-06-08T14:48:25.987Z,21.10
2019-06-08T14:53:29.591Z,21.30
2019-06-08T14:58:35.138Z,21.20
2019-06-08T15:03:39.725Z,21.30
2019-06-08T15:08:44.074Z,21.40
2019-06-08T15:13:48.850Z,21.30
2019-06-08T15:18:55.397Z,21.10
2019-06-08T15:23:59.924Z,21.10
2019-06-08T15:29:04.361Z,21.10
2019-06-08T15:34:10.719Z,21.10
2019-06-08T15:39:14.936Z,21.30
2019-06-08T15:44:22.658Z,21.20
2019-06-08T15:49:28.911Z,21.20
2019-06-08T15:54:36.183Z,21.10
2019-06-08T15:59:41.876Z,21.20
2019-06-08T16:04:44.260Z,21.00
2019-06-08T16:09:48.616Z,20.50
2019-06-08T16:14:53.009Z,20.20
2019-06-08T16:19:57.543Z,19.80
2019-06-08T16:25:02.046Z,19.60
2019-06-08T16:30:09.868Z,19.80
2019-06-08T16:35:14.967Z,19.90
2019-06-08T16:40:19.284Z,19.80
2019-06-08T16:45:23.643Z,19.50
2019-06-08T16:50:28.115Z,19.10
2019-06-08T16:55:32.463Z,18.80
2019-06-08T17:00:40.141Z,18.60
2019-06-08T17:05:42.893Z,18.60
2019-06-08T17:10:48.022Z,18.60
2019-06-08T17:15:52.713Z,18.40
2019-06-08T17:20:57.114Z,18.20
2019-06-08T17:26:01.415Z,18.00
2019-06-08T17:31:05.640Z,17.80
2019-06-08T17:36:10.449Z,17.80
2019-06-08T17:41:15.174Z,17.90
2019-06-08T17:46:19.532Z,17.90
2019-06-08T17:51:23.823Z,18.10
2019-06-08T17:56:28.154Z,18.10
2019-06-08T18:01:34.304Z,18.30
2019-06-08T18:06:40.251Z,18.40
2019-06-08T18:11:45.207Z,18.40
2019-06-08T18:16:50.816Z,18.40
2019-06-08T18:22:02.963Z,18.20
2019-06-08T18:27:01.447Z,18.00
2019-06-08T18:32:07.335Z,18.00
2019-06-08T18:37:12.559Z,17.80
2019-06-08T18:42:19.374Z,17.60
2019-06-08T18:47:23.783Z,17.50
2019-06-08T18:52:28.324Z,17.50
2019-06-08T18:57:35.397Z,17.40
2019-06-08T19:02:44.924Z,17.40
2019-06-08T19:07:50.616Z,17.50
2019-06-08T19:12:55.322Z,17.60
2019-06-08T19:17:59.779Z,17.70
2019-06-08T19:23:05.729Z,17.70
2019-06-08T19:28:19.084Z,17.70
2019-06-08T19:33:21.730Z,17.80
2019-06-08T19:38:27.845Z,17.60
2019-06-08T19:43:34.308Z,17.60
2019-06-08T19:48:39.630Z,17.50
2019-06-08T19:53:49.440Z,17.60
2019-06-08T19:59:01.056Z,17.60
2019-06-08T20:04:00.758Z,17.60
2019-06-08T20:09:04.740Z,17.60
2019-06-08T20:14:09.099Z,17.70
2019-06-08T20:19:18.836Z,17.70
2019-06-08T20:24:23.343Z,17.70
2019-06-08T20:29:28.450Z,17.70
2019-06-08T20:34:33.277Z,17.60
2019-06-08T20:39:38.333Z,17.60
2019-06-08T20:44:43.923Z,17.70
2019-06-08T20:49:49.365Z,17.70
2019-06-08T20:54:55.543Z,17.50
2019-06-08T21:00:00.025Z,17.50
2019-06-08T21:05:07.637Z,17.40
2019-06-08T21:10:11.076Z,17.30
2019-06-08T21:15:17.766Z,17.30
2019-06-08T21:20:24.450Z,17.20
2019-06-08T21:25:28.771Z,17.10
2019-06-08T21:30:33.560Z,17.00
2019-06-08T21:35:37.913Z,17.00
2019-06-08T21:40:42.802Z,16.90
2019-06-08T21:45:48.922Z,16.90
2019-06-08T21:50:53.814Z,16.90
2019-06-08T21:56:02.727Z,16.90
2019-06-08T22:01:09.046Z,16.70
2019-06-08T22:06:13.762Z,16.60
2019-06-08T22:11:31.907Z,16.50
2019-06-08T22:16:38.199Z,16.50
2019-06-08T22:21:42.697Z,16.40
2019-06-08T22:26:48.059Z,16.50
2019-06-08T22:31:53.836Z,16.60
2019-06-08T22:37:00.541Z,16.60
2019-06-08T22:42:10.810Z,16.60
2019-06-08T22:47:15.512Z,16.60
2019-06-08T22:52:19.815Z,16.60
2019-06-08T22:57:24.103Z,16.50
2019-06-08T23:02:28.433Z,16.50
2019-06-08T23:07:33.054Z,16.50
2019-06-08T23:12:38.152Z,16.30
2019-06-08T23:17:42.811Z,16.20
2019-06-08T23:22:47.500Z,16.20
2019-06-08T23:27:52.023Z,16.10
2019-06-08T23:32:59.010Z,16.10
2019-06-08T23:38:02.982Z,16.00
2019-06-08T23:43:08.241Z,15.90
2019-06-08T23:48:12.743Z,15.90
2019-06-08T23:53:18.263Z,15.70
2019-06-08T23:58:22.729Z,15.80
